Terminal Aerodrome Forecast
Issued by NWS

Home | Current Version | Previous Version | Text Only | Print | Product List | Glossary On
Versions: 1 2 3 4 5 6 7 8 9 10 11 12 13
288
FTUS46 KMFR 142344
TAFOTH
TAF
KOTH 142344Z 1500/1524 36008KT P6SM FEW250
     FM150600 12005KT P6SM FEW250
     FM151500 34008KT P6SM -SHRA BKN025 BKN250
     FM151700 34010KT P6SM -SHRA SCT012 BKN025 OVC100
     FM152200 35010G20KT P6SM BKN012=

USA.gov is the U.S. government's official web portal to all federal, state and local government web resources and services.